LKMT/OSR METAR and TAF weather

Enter ICAO airport designator
Station Type Date Time Source
LKMT METAR 2020/01/29 03:30 UTC NOAA

LKMT 290330Z 23014KT 9999 FEW034 00/M02 Q1002 NOSIG


Station Type Date Time Source
LKMT Decoded METAR 2020/01/29 03:30 UTC NOAA

Ostrava / Mosnov, Czech Republic (LKMT) 49-41N 018-07E 256M
Jan 28, 2020 - 10:30 PM EST / 2020.01.29 0330 UTC
Wind: from the SW (230 degrees) at 16 MPH (14 KT):0
Visibility: greater than 7 mile(s):0
Sky conditions: mostly clear
Temperature: 32 F (0 C)
Windchill: 21 F (-6 C):1
Dew Point: 28 F (-2 C)
Relative Humidity: 86%
Pressure (altimeter): 29.59 in. Hg (1002 hPa)
ob: LKMT 290330Z 23014KT 9999 FEW034 00/M02 Q1002 NOSIG
cycle: 3

Station Type Date Time Source
LKMT TAF 2020/01/28 18:16 UTC NOAA

TAF LKMT 281700Z 2818/3000 23014KT 9999 SCT025
TEMPO 2818/2823 24016G32KT 7000 -SHRA BKN014
TEMPO 2823/2916 24014G24KT
TEMPO 2909/2918 7000 -SHSNRA BKN020

Example: see airport list